sensor_id;sensor_type;location;lat;lon;timestamp;pressure;altitude;pressure_sealevel;temperature;humidity
6343;BME280;3204;42.698;23.298;2023-07-20T00:01:27;94609.00;;;23.96;64.49
6343;BME280;3204;42.698;23.298;2023-07-20T00:03:53;94603.81;;;24.05;65.18
6343;BME280;3204;42.698;23.298;2023-07-20T00:06:22;94612.13;;;24.01;64.87
6343;BME280;3204;42.698;23.298;2023-07-20T00:08:47;94604.13;;;24.24;64.55
6343;BME280;3204;42.698;23.298;2023-07-20T00:11:13;94613.69;;;24.16;63.42
6343;BME280;3204;42.698;23.298;2023-07-20T00:13:39;94618.44;;;24.12;63.81
6343;BME280;3204;42.698;23.298;2023-07-20T00:16:05;94629.53;;;24.12;63.55
6343;BME280;3204;42.698;23.298;2023-07-20T00:18:30;94615.22;;;24.21;63.91
6343;BME280;3204;42.698;23.298;2023-07-20T00:20:56;94617.22;;;24.24;63.59
6343;BME280;3204;42.698;23.298;2023-07-20T00:23:21;94623.50;;;24.31;63.44
6343;BME280;3204;42.698;23.298;2023-07-20T00:25:48;94621.47;;;24.42;62.91
6343;BME280;3204;42.698;23.298;2023-07-20T00:28:14;94624.53;;;24.58;62.66
6343;BME280;3204;42.698;23.298;2023-07-20T00:30:39;94625.66;;;24.75;61.47
6343;BME280;3204;42.698;23.298;2023-07-20T00:33:09;94626.94;;;24.60;61.70
6343;BME280;3204;42.698;23.298;2023-07-20T00:35:35;94630.41;;;24.74;61.53
6343;BME280;3204;42.698;23.298;2023-07-20T00:38:00;94634.78;;;24.68;61.42
6343;BME280;3204;42.698;23.298;2023-07-20T00:40:26;94632.47;;;24.56;61.58
6343;BME280;3204;42.698;23.298;2023-07-20T00:42:52;94626.94;;;24.49;62.39
6343;BME280;3204;42.698;23.298;2023-07-20T00:45:17;94620.69;;;24.38;63.02
6343;BME280;3204;42.698;23.298;2023-07-20T00:47:43;94628.66;;;24.26;64.22
6343;BME280;3204;42.698;23.298;2023-07-20T00:50:09;94623.28;;;23.91;65.93
6343;BME280;3204;42.698;23.298;2023-07-20T00:52:36;94608.97;;;23.89;66.69
6343;BME280;3204;42.698;23.298;2023-07-20T00:55:06;94604.69;;;23.63;67.16
6343;BME280;3204;42.698;23.298;2023-07-20T00:57:32;94609.03;;;23.78;67.14
6343;BME280;3204;42.698;23.298;2023-07-20T00:59:58;94602.72;;;23.67;67.71
6343;BME280;3204;42.698;23.298;2023-07-20T01:02:24;94608.72;;;23.34;69.12
6343;BME280;3204;42.698;23.298;2023-07-20T01:04:49;94601.22;;;23.35;69.08
6343;BME280;3204;42.698;23.298;2023-07-20T01:07:40;94600.03;;;23.43;69.31
6343;BME280;3204;42.698;23.298;2023-07-20T01:12:52;94611.50;;;23.34;69.26
6343;BME280;3204;42.698;23.298;2023-07-20T01:15:18;94609.91;;;23.47;69.45
6343;BME280;3204;42.698;23.298;2023-07-20T01:17:44;94603.59;;;23.36;69.69
6343;BME280;3204;42.698;23.298;2023-07-20T01:20:13;94608.31;;;23.39;69.98
6343;BME280;3204;42.698;23.298;2023-07-20T01:23:41;94608.28;;;23.60;69.51
6343;BME280;3204;42.698;23.298;2023-07-20T01:31:36;94620.97;;;23.47;69.08
6343;BME280;3204;42.698;23.298;2023-07-20T01:34:05;94619.38;;;23.50;68.32
6343;BME280;3204;42.698;23.298;2023-07-20T01:36:37;94623.75;;;23.33;68.64
6343;BME280;3204;42.698;23.298;2023-07-20T01:39:03;94613.88;;;23.25;68.64
6343;BME280;3204;42.698;23.298;2023-07-20T01:41:30;94605.19;;;23.23;68.65
6343;BME280;3204;42.698;23.298;2023-07-20T01:43:58;94606.38;;;23.26;68.62
6343;BME280;3204;42.698;23.298;2023-07-20T01:46:27;94613.09;;;23.28;68.46
6343;BME280;3204;42.698;23.298;2023-07-20T01:48:53;94609.53;;;23.31;68.49
6343;BME280;3204;42.698;23.298;2023-07-20T01:51:19;94611.13;;;23.29;68.65
6343;BME280;3204;42.698;23.298;2023-07-20T01:53:45;94607.13;;;23.40;68.79
6343;BME280;3204;42.698;23.298;2023-07-20T01:56:10;94617.84;;;23.31;69.07
6343;BME280;3204;42.698;23.298;2023-07-20T01:58:37;94611.50;;;23.27;69.08
6343;BME280;3204;42.698;23.298;2023-07-20T02:01:03;94597.66;;;23.20;69.31
6343;BME280;3204;42.698;23.298;2023-07-20T02:03:29;94605.56;;;23.32;68.84
6343;BME280;3204;42.698;23.298;2023-07-20T02:05:54;94603.59;;;23.05;69.21
6343;BME280;3204;42.698;23.298;2023-07-20T02:08:20;94601.63;;;22.98;69.48
6343;BME280;3204;42.698;23.298;2023-07-20T02:10:48;94602.78;;;23.11;69.43
6343;BME280;3204;42.698;23.298;2023-07-20T02:13:14;94600.81;;;23.12;69.37
6343;BME280;3204;42.698;23.298;2023-07-20T02:15:39;94594.88;;;23.17;69.48
6343;BME280;3204;42.698;23.298;2023-07-20T02:18:05;94596.47;;;23.07;69.73
6343;BME280;3204;42.698;23.298;2023-07-20T02:20:31;94597.25;;;23.04;70.07
6343;BME280;3204;42.698;23.298;2023-07-20T02:22:57;94598.84;;;23.05;69.85
6343;BME280;3204;42.698;23.298;2023-07-20T02:25:22;94602.81;;;23.18;69.72
6343;BME280;3204;42.698;23.298;2023-07-20T02:27:48;94604.75;;;23.14;69.55
6343;BME280;3204;42.698;23.298;2023-07-20T02:30:13;94597.66;;;23.20;69.57
6343;BME280;3204;42.698;23.298;2023-07-20T02:32:39;94602.00;;;23.21;70.00
6343;BME280;3204;42.698;23.298;2023-07-20T02:35:05;94591.72;;;23.04;70.41
6343;BME280;3204;42.698;23.298;2023-07-20T02:37:31;94581.44;;;23.08;70.39
6343;BME280;3204;42.698;23.298;2023-07-20T02:39:56;94576.28;;;23.00;70.76
6343;BME280;3204;42.698;23.298;2023-07-20T02:42:22;94577.50;;;22.95;70.88
6343;BME280;3204;42.698;23.298;2023-07-20T02:44:51;94572.38;;;22.90;71.18
6343;BME280;3204;42.698;23.298;2023-07-20T02:47:16;94573.56;;;22.89;70.99
6343;BME280;3204;42.698;23.298;2023-07-20T02:49:41;94575.91;;;22.87;71.38
6343;BME280;3204;42.698;23.298;2023-07-20T02:52:07;94565.66;;;22.84;71.19
6343;BME280;3204;42.698;23.298;2023-07-20T02:54:32;94571.56;;;22.90;71.08
6343;BME280;3204;42.698;23.298;2023-07-20T02:56:58;94575.13;;;22.90;71.00
6343;BME280;3204;42.698;23.298;2023-07-20T02:59:23;94573.94;;;22.88;71.13
6343;BME280;3204;42.698;23.298;2023-07-20T03:01:49;94571.97;;;22.88;71.29
6343;BME280;3204;42.698;23.298;2023-07-20T03:04:14;94568.81;;;22.86;71.43
6343;BME280;3204;42.698;23.298;2023-07-20T03:06:41;94569.19;;;22.85;71.85
6343;BME280;3204;42.698;23.298;2023-07-20T03:09:06;94573.94;;;22.84;71.79
6343;BME280;3204;42.698;23.298;2023-07-20T03:11:32;94571.97;;;22.81;72.38
6343;BME280;3204;42.698;23.298;2023-07-20T03:13:58;94574.34;;;22.86;72.29
6343;BME280;3204;42.698;23.298;2023-07-20T03:16:24;94574.75;;;22.88;72.42
6343;BME280;3204;42.698;23.298;2023-07-20T03:18:50;94577.09;;;22.90;72.49
6343;BME280;3204;42.698;23.298;2023-07-20T03:21:16;94583.00;;;23.02;72.43
6343;BME280;3204;42.698;23.298;2023-07-20T03:23:42;94586.19;;;22.97;72.63
6343;BME280;3204;42.698;23.298;2023-07-20T03:26:07;94588.94;;;22.83;72.88
6343;BME280;3204;42.698;23.298;2023-07-20T03:28:36;94590.13;;;22.86;73.01
6343;BME280;3204;42.698;23.298;2023-07-20T03:31:02;94590.13;;;22.82;72.95
6343;BME280;3204;42.698;23.298;2023-07-20T03:33:29;94582.22;;;22.77;73.45
6343;BME280;3204;42.698;23.298;2023-07-20T03:35:55;94581.84;;;22.79;73.53
6343;BME280;3204;42.698;23.298;2023-07-20T03:38:22;94582.25;;;22.70;73.57
6343;BME280;3204;42.698;23.298;2023-07-20T03:40:54;94592.91;;;22.68;74.01
6343;BME280;3204;42.698;23.298;2023-07-20T03:43:20;94594.50;;;22.73;73.92
6343;BME280;3204;42.698;23.298;2023-07-20T03:45:46;94593.31;;;22.84;73.96
6343;BME280;3204;42.698;23.298;2023-07-20T03:48:15;94590.94;;;22.90;73.56
6343;BME280;3204;42.698;23.298;2023-07-20T03:50:41;94592.53;;;22.80;73.75
6343;BME280;3204;42.698;23.298;2023-07-20T03:53:06;94589.38;;;22.82;73.89
6343;BME280;3204;42.698;23.298;2023-07-20T03:55:32;94589.75;;;22.77;74.29
6343;BME280;3204;42.698;23.298;2023-07-20T03:57:57;94587.00;;;22.80;73.84
6343;BME280;3204;42.698;23.298;2023-07-20T04:00:24;94597.25;;;22.83;73.71
6343;BME280;3204;42.698;23.298;2023-07-20T04:02:50;94598.03;;;22.87;73.37
6343;BME280;3204;42.698;23.298;2023-07-20T04:05:15;94586.19;;;22.87;73.27
6343;BME280;3204;42.698;23.298;2023-07-20T04:07:41;94587.78;;;22.88;73.19
6343;BME280;3204;42.698;23.298;2023-07-20T04:10:07;94596.47;;;22.90;72.74
6343;BME280;3204;42.698;23.298;2023-07-20T04:12:32;94591.34;;;22.92;72.34
6343;BME280;3204;42.698;23.298;2023-07-20T04:14:58;94584.63;;;22.89;72.37
6343;BME280;3204;42.698;23.298;2023-07-20T04:17:23;94571.16;;;22.91;72.25
6343;BME280;3204;42.698;23.298;2023-07-20T04:19:49;94576.28;;;23.00;72.18
6343;BME280;3204;42.698;23.298;2023-07-20T04:22:14;94576.31;;;23.07;72.32
6343;BME280;3204;42.698;23.298;2023-07-20T04:24:42;94588.56;;;23.30;72.00
6343;BME280;3204;42.698;23.298;2023-07-20T04:27:07;94577.88;;;23.39;71.63
6343;BME280;3204;42.698;23.298;2023-07-20T04:29:33;94575.50;;;23.38;71.67
6343;BME280;3204;42.698;23.298;2023-07-20T04:31:58;94576.31;;;23.35;71.64
6343;BME280;3204;42.698;23.298;2023-07-20T04:34:23;94578.28;;;23.41;71.25
6343;BME280;3204;42.698;23.298;2023-07-20T04:36:49;94568.34;;;23.58;70.64
6343;BME280;3204;42.698;23.298;2023-07-20T04:39:14;94569.56;;;23.46;70.63
6343;BME280;3204;42.698;23.298;2023-07-20T04:41:40;94571.94;;;23.48;71.08
6343;BME280;3204;42.698;23.298;2023-07-20T04:44:05;94573.53;;;23.35;71.34
6343;BME280;3204;42.698;23.298;2023-07-20T04:46:31;94571.16;;;23.23;72.02
6343;BME280;3204;42.698;23.298;2023-07-20T04:48:56;94564.06;;;23.29;71.68
6343;BME280;3204;42.698;23.298;2023-07-20T04:51:22;94568.00;;;23.24;71.39
6343;BME280;3204;42.698;23.298;2023-07-20T04:53:47;94571.94;;;23.16;71.74
6343;BME280;3204;42.698;23.298;2023-07-20T04:56:13;94568.00;;;23.28;71.46
6343;BME280;3204;42.698;23.298;2023-07-20T04:58:38;94564.84;;;23.26;70.70
6343;BME280;3204;42.698;23.298;2023-07-20T05:01:04;94558.53;;;23.18;71.14
6343;BME280;3204;42.698;23.298;2023-07-20T05:03:30;94571.56;;;23.28;70.93
6343;BME280;3204;42.698;23.298;2023-07-20T05:05:55;94570.78;;;23.17;71.80
6343;BME280;3204;42.698;23.298;2023-07-20T05:08:20;94565.63;;;23.30;70.78
6343;BME280;3204;42.698;23.298;2023-07-20T05:10:47;94569.59;;;23.32;70.82
6343;BME280;3204;42.698;23.298;2023-07-20T05:13:13;94573.50;;;23.52;70.21
6343;BME280;3204;42.698;23.298;2023-07-20T05:15:39;94585.31;;;23.70;69.07
6343;BME280;3204;42.698;23.298;2023-07-20T05:18:05;94582.13;;;23.75;68.92
6343;BME280;3204;42.698;23.298;2023-07-20T05:20:30;94585.34;;;23.67;68.87
6343;BME280;3204;42.698;23.298;2023-07-20T05:22:57;94575.38;;;23.90;67.63
6343;BME280;3204;42.698;23.298;2023-07-20T05:25:22;94570.63;;;23.84;67.90
6343;BME280;3204;42.698;23.298;2023-07-20T05:27:48;94574.50;;;24.07;67.99
6343;BME280;3204;42.698;23.298;2023-07-20T05:30:14;94587.56;;;24.10;67.59
6343;BME280;3204;42.698;23.298;2023-07-20T05:32:39;94594.59;;;24.25;66.93
6343;BME280;3204;42.698;23.298;2023-07-20T05:35:05;94589.81;;;24.36;66.63
6343;BME280;3204;42.698;23.298;2023-07-20T05:37:31;94588.94;;;24.50;66.00
6343;BME280;3204;42.698;23.298;2023-07-20T05:39:57;94591.28;;;24.62;65.78
6343;BME280;3204;42.698;23.298;2023-07-20T05:42:22;94604.63;;;24.77;65.36
6343;BME280;3204;42.698;23.298;2023-07-20T05:44:48;94612.09;;;24.84;64.69
6343;BME280;3204;42.698;23.298;2023-07-20T05:47:15;94606.09;;;24.96;64.83
6343;BME280;3204;42.698;23.298;2023-07-20T05:49:40;94618.28;;;25.05;64.52
6343;BME280;3204;42.698;23.298;2023-07-20T05:52:06;94606.59;;;25.31;63.47
6343;BME280;3204;42.698;23.298;2023-07-20T05:54:31;94606.94;;;25.37;63.22
6343;BME280;3204;42.698;23.298;2023-07-20T05:56:57;94603.84;;;25.31;63.72
6343;BME280;3204;42.698;23.298;2023-07-20T05:59:22;94599.84;;;25.32;63.86
6343;BME280;3204;42.698;23.298;2023-07-20T06:01:49;94598.59;;;25.37;64.20
6343;BME280;3204;42.698;23.298;2023-07-20T06:04:14;94593.72;;;25.51;63.21
6343;BME280;3204;42.698;23.298;2023-07-20T06:06:40;94603.63;;;25.52;62.93
6343;BME280;3204;42.698;23.298;2023-07-20T06:09:06;94594.13;;;25.50;62.72
6343;BME280;3204;42.698;23.298;2023-07-20T06:11:35;94601.78;;;25.39;62.82
6343;BME280;3204;42.698;23.298;2023-07-20T06:14:00;94596.53;;;25.48;63.37
6343;BME280;3204;42.698;23.298;2023-07-20T06:16:26;94595.28;;;25.52;63.29
6343;BME280;3204;42.698;23.298;2023-07-20T06:18:51;94589.28;;;25.57;63.05
6343;BME280;3204;42.698;23.298;2023-07-20T06:21:17;94581.59;;;25.72;62.27
6343;BME280;3204;42.698;23.298;2023-07-20T06:23:42;94576.69;;;25.83;62.70
6343;BME280;3204;42.698;23.298;2023-07-20T06:26:07;94575.81;;;25.89;61.94
6343;BME280;3204;42.698;23.298;2023-07-20T06:28:33;94576.19;;;25.91;61.85
6343;BME280;3204;42.698;23.298;2023-07-20T06:31:02;94573.47;;;25.88;61.44
6343;BME280;3204;42.698;23.298;2023-07-20T06:33:28;94578.25;;;25.87;61.81
6343;BME280;3204;42.698;23.298;2023-07-20T06:35:54;94575.59;;;26.10;60.74
6343;BME280;3204;42.698;23.298;2023-07-20T06:38:20;94565.84;;;26.29;59.99
6343;BME280;3204;42.698;23.298;2023-07-20T06:40:46;94573.09;;;26.49;59.74
6343;BME280;3204;42.698;23.298;2023-07-20T06:43:12;94575.22;;;26.38;60.67
6343;BME280;3204;42.698;23.298;2023-07-20T06:45:37;94578.38;;;26.40;60.29
6343;BME280;3204;42.698;23.298;2023-07-20T06:48:03;94574.66;;;26.50;59.75
6343;BME280;3204;42.698;23.298;2023-07-20T06:50:29;94570.56;;;26.62;59.62
6343;BME280;3204;42.698;23.298;2023-07-20T06:52:55;94575.50;;;27.00;59.31
6343;BME280;3204;42.698;23.298;2023-07-20T06:55:20;94577.75;;;27.36;58.04
6343;BME280;3204;42.698;23.298;2023-07-20T06:57:46;94589.38;;;27.54;57.37
6343;BME280;3204;42.698;23.298;2023-07-20T07:00:12;94590.53;;;27.56;57.21
6343;BME280;3204;42.698;23.298;2023-07-20T07:02:37;94605.63;;;27.78;56.58
6343;BME280;3204;42.698;23.298;2023-07-20T07:05:03;94610.41;;;27.81;55.09
6343;BME280;3204;42.698;23.298;2023-07-20T07:07:29;94603.41;;;27.70;55.21
6343;BME280;3204;42.698;23.298;2023-07-20T07:09:54;94600.97;;;27.72;55.72
6343;BME280;3204;42.698;23.298;2023-07-20T07:12:20;94614.72;;;27.63;55.65
6343;BME280;3204;42.698;23.298;2023-07-20T07:14:45;94628.16;;;27.68;55.38
6343;BME280;3204;42.698;23.298;2023-07-20T07:17:11;94636.03;;;27.73;55.29
6343;BME280;3204;42.698;23.298;2023-07-20T07:19:36;94644.28;;;27.80;55.64
6343;BME280;3204;42.698;23.298;2023-07-20T07:22:03;94651.06;;;28.02;55.22
6343;BME280;3204;42.698;23.298;2023-07-20T07:24:28;94655.00;;;28.24;54.76
6343;BME280;3204;42.698;23.298;2023-07-20T07:27:01;94660.69;;;28.40;54.82
6343;BME280;3204;42.698;23.298;2023-07-20T07:29:27;94654.53;;;28.68;53.82
6343;BME280;3204;42.698;23.298;2023-07-20T07:31:52;94658.09;;;28.88;53.11
6343;BME280;3204;42.698;23.298;2023-07-20T07:34:18;94637.63;;;29.10;51.90
6343;BME280;3204;42.698;23.298;2023-07-20T07:36:44;94641.69;;;29.41;52.04
6343;BME280;3204;42.698;23.298;2023-07-20T07:39:10;94630.06;;;29.43;51.50
6343;BME280;3204;42.698;23.298;2023-07-20T07:41:36;94641.09;;;29.66;51.43
6343;BME280;3204;42.698;23.298;2023-07-20T07:44:01;94641.59;;;29.93;50.78
6343;BME280;3204;42.698;23.298;2023-07-20T07:46:26;94640.41;;;29.78;50.85
6343;BME280;3204;42.698;23.298;2023-07-20T07:48:52;94616.50;;;29.89;51.00
6343;BME280;3204;42.698;23.298;2023-07-20T07:51:18;94601.03;;;29.85;50.70
6343;BME280;3204;42.698;23.298;2023-07-20T07:53:44;94604.69;;;29.98;50.53
6343;BME280;3204;42.698;23.298;2023-07-20T07:56:09;94619.00;;;30.00;50.46
6343;BME280;3204;42.698;23.298;2023-07-20T07:58:35;94614.63;;;29.99;50.66
6343;BME280;3204;42.698;23.298;2023-07-20T08:01:01;94605.13;;;30.12;50.01
6343;BME280;3204;42.698;23.298;2023-07-20T08:03:26;94625.22;;;30.07;49.93
6343;BME280;3204;42.698;23.298;2023-07-20T08:05:55;94633.19;;;30.37;49.64
6343;BME280;3204;42.698;23.298;2023-07-20T08:08:21;94647.97;;;30.66;49.43
6343;BME280;3204;42.698;23.298;2023-07-20T08:10:46;94645.75;;;30.74;49.39
6343;BME280;3204;42.698;23.298;2023-07-20T08:13:13;94653.63;;;30.50;49.56
6343;BME280;3204;42.698;23.298;2023-07-20T08:15:39;94650.81;;;30.79;49.69
6343;BME280;3204;42.698;23.298;2023-07-20T08:18:05;94660.59;;;30.87;50.09
6343;BME280;3204;42.698;23.298;2023-07-20T08:20:30;94664.97;;;30.59;50.82
6343;BME280;3204;42.698;23.298;2023-07-20T08:22:57;94668.66;;;30.56;50.00
6343;BME280;3204;42.698;23.298;2023-07-20T08:25:25;94665.72;;;30.76;49.42
6343;BME280;3204;42.698;23.298;2023-07-20T08:27:50;94667.09;;;30.96;48.21
6343;BME280;3204;42.698;23.298;2023-07-20T08:30:16;94649.44;;;30.71;47.22
6343;BME280;3204;42.698;23.298;2023-07-20T08:32:42;94658.84;;;30.64;46.45
6343;BME280;3204;42.698;23.298;2023-07-20T08:35:08;94651.84;;;30.56;46.72
6343;BME280;3204;42.698;23.298;2023-07-20T08:37:33;94659.38;;;31.00;46.30
6343;BME280;3204;42.698;23.298;2023-07-20T08:39:59;94653.56;;;31.20;45.66
6343;BME280;3204;42.698;23.298;2023-07-20T08:42:25;94652.34;;;31.46;45.35
6343;BME280;3204;42.698;23.298;2023-07-20T08:44:52;94649.19;;;31.69;44.57
6343;BME280;3204;42.698;23.298;2023-07-20T08:47:18;94655.81;;;31.62;44.97
6343;BME280;3204;42.698;23.298;2023-07-20T08:49:48;94651.56;;;31.83;44.33
6343;BME280;3204;42.698;23.298;2023-07-20T08:52:14;94651.91;;;31.85;43.90
6343;BME280;3204;42.698;23.298;2023-07-20T08:54:40;94657.25;;;31.92;43.84
6343;BME280;3204;42.698;23.298;2023-07-20T08:57:06;94655.88;;;32.09;43.68
6343;BME280;3204;42.698;23.298;2023-07-20T08:59:34;94647.03;;;32.32;42.68
6343;BME280;3204;42.698;23.298;2023-07-20T09:02:02;94656.88;;;32.49;42.45
6343;BME280;3204;42.698;23.298;2023-07-20T09:04:27;94648.56;;;32.45;41.61
6343;BME280;3204;42.698;23.298;2023-07-20T09:06:53;94637.06;;;32.18;40.47
6343;BME280;3204;42.698;23.298;2023-07-20T09:09:19;94635.97;;;31.57;42.15
6343;BME280;3204;42.698;23.298;2023-07-20T09:11:49;94639.22;;;31.68;42.68
6343;BME280;3204;42.698;23.298;2023-07-20T09:14:14;94644.16;;;31.51;42.60
6343;BME280;3204;42.698;23.298;2023-07-20T09:16:50;94634.81;;;31.92;41.83
6343;BME280;3204;42.698;23.298;2023-07-20T09:19:16;94632.94;;;32.10;41.28
6343;BME280;3204;42.698;23.298;2023-07-20T09:21:47;94617.56;;;32.15;40.63
6343;BME280;3204;42.698;23.298;2023-07-20T09:24:13;94621.25;;;32.46;40.40
6343;BME280;3204;42.698;23.298;2023-07-20T09:26:43;94613.31;;;32.87;39.57
6343;BME280;3204;42.698;23.298;2023-07-20T09:29:08;94618.44;;;33.19;39.95
6343;BME280;3204;42.698;23.298;2023-07-20T09:31:37;94621.34;;;33.07;38.95
6343;BME280;3204;42.698;23.298;2023-07-20T09:34:05;94618.63;;;33.25;39.41
6343;BME280;3204;42.698;23.298;2023-07-20T09:36:33;94617.59;;;33.31;39.01
6343;BME280;3204;42.698;23.298;2023-07-20T09:39:00;94621.00;;;33.66;38.06
6343;BME280;3204;42.698;23.298;2023-07-20T09:41:25;94616.25;;;33.93;37.18
6343;BME280;3204;42.698;23.298;2023-07-20T09:43:52;94619.25;;;34.08;36.44
6343;BME280;3204;42.698;23.298;2023-07-20T09:46:18;94619.72;;;34.06;36.87
6343;BME280;3204;42.698;23.298;2023-07-20T09:48:52;94617.88;;;34.30;36.23
6343;BME280;3204;42.698;23.298;2023-07-20T09:51:21;94620.53;;;34.34;35.04
6343;BME280;3204;42.698;23.298;2023-07-20T09:53:48;94602.50;;;34.76;35.72
6343;BME280;3204;42.698;23.298;2023-07-20T09:56:16;94595.91;;;34.97;35.00
6343;BME280;3204;42.698;23.298;2023-07-20T09:58:43;94576.66;;;34.87;34.53
6343;BME280;3204;42.698;23.298;2023-07-20T10:01:10;94590.28;;;34.52;35.60
6343;BME280;3204;42.698;23.298;2023-07-20T10:03:41;94592.03;;;34.23;35.89
6343;BME280;3204;42.698;23.298;2023-07-20T10:06:10;94590.09;;;33.84;37.13
6343;BME280;3204;42.698;23.298;2023-07-20T10:08:41;94588.00;;;33.66;37.33
6343;BME280;3204;42.698;23.298;2023-07-20T10:11:08;94588.22;;;33.32;37.04
6343;BME280;3204;42.698;23.298;2023-07-20T10:13:37;94597.31;;;33.06;37.90
6343;BME280;3204;42.698;23.298;2023-07-20T10:16:11;94599.56;;;32.89;38.23
6343;BME280;3204;42.698;23.298;2023-07-20T10:21:11;94603.94;;;32.69;39.10
6343;BME280;3204;42.698;23.298;2023-07-20T10:23:38;94610.22;;;32.73;39.05
6343;BME280;3204;42.698;23.298;2023-07-20T10:26:04;94598.59;;;32.62;38.92
6343;BME280;3204;42.698;23.298;2023-07-20T10:28:31;94594.03;;;32.55;39.09
6343;BME280;3204;42.698;23.298;2023-07-20T10:30:57;94571.78;;;32.48;38.82
6343;BME280;3204;42.698;23.298;2023-07-20T10:33:23;94565.34;;;32.39;38.60
6343;BME280;3204;42.698;23.298;2023-07-20T10:35:56;94582.69;;;32.25;39.07
6343;BME280;3204;42.698;23.298;2023-07-20T10:38:41;94579.16;;;32.12;39.85
6343;BME280;3204;42.698;23.298;2023-07-20T10:41:16;94586.59;;;32.06;39.52
6343;BME280;3204;42.698;23.298;2023-07-20T10:43:45;94570.47;;;31.97;39.62
6343;BME280;3204;42.698;23.298;2023-07-20T10:46:14;94526.31;;;31.98;39.24
6343;BME280;3204;42.698;23.298;2023-07-20T10:49:00;94497.88;;;31.87;40.54
6343;BME280;3204;42.698;23.298;2023-07-20T10:51:26;94533.56;;;31.40;43.58
6343;BME280;3204;42.698;23.298;2023-07-20T10:53:52;94552.53;;;31.36;42.37
6343;BME280;3204;42.698;23.298;2023-07-20T10:56:21;94551.38;;;31.46;42.83
6343;BME280;3204;42.698;23.298;2023-07-20T10:58:47;94538.66;;;31.66;42.52
6343;BME280;3204;42.698;23.298;2023-07-20T11:01:14;94527.88;;;31.65;42.19
6343;BME280;3204;42.698;23.298;2023-07-20T11:03:41;94521.50;;;31.64;42.30
6343;BME280;3204;42.698;23.298;2023-07-20T11:06:30;94520.13;;;31.69;42.07
6343;BME280;3204;42.698;23.298;2023-07-20T11:09:04;94516.13;;;31.91;41.14
6343;BME280;3204;42.698;23.298;2023-07-20T11:11:33;94518.16;;;31.91;41.04
6343;BME280;3204;42.698;23.298;2023-07-20T11:14:01;94515.16;;;32.07;40.45
6343;BME280;3204;42.698;23.298;2023-07-20T11:16:41;94512.63;;;32.21;39.83
6343;BME280;3204;42.698;23.298;2023-07-20T11:19:17;94509.31;;;32.35;39.87
6343;BME280;3204;42.698;23.298;2023-07-20T11:21:45;94511.84;;;32.42;39.15
6343;BME280;3204;42.698;23.298;2023-07-20T11:24:11;94509.13;;;32.30;39.95
6343;BME280;3204;42.698;23.298;2023-07-20T11:26:45;94506.22;;;32.21;39.47
6343;BME280;3204;42.698;23.298;2023-07-20T11:29:11;94505.84;;;32.31;40.14
6343;BME280;3204;42.698;23.298;2023-07-20T11:31:38;94496.19;;;32.32;39.81
6343;BME280;3204;42.698;23.298;2023-07-20T11:34:04;94497.44;;;32.62;39.68
6343;BME280;3204;42.698;23.298;2023-07-20T11:36:30;94490.31;;;33.18;38.61
6343;BME280;3204;42.698;23.298;2023-07-20T11:38:55;94486.38;;;33.64;38.18
6343;BME280;3204;42.698;23.298;2023-07-20T11:41:21;94490.00;;;34.01;37.19
6343;BME280;3204;42.698;23.298;2023-07-20T11:43:47;94485.94;;;33.93;37.63
6343;BME280;3204;42.698;23.298;2023-07-20T11:46:12;94480.00;;;33.82;37.63
6343;BME280;3204;42.698;23.298;2023-07-20T11:48:38;94481.22;;;34.17;38.45
6343;BME280;3204;42.698;23.298;2023-07-20T11:51:05;94479.03;;;34.30;36.54
6343;BME280;3204;42.698;23.298;2023-07-20T11:53:30;94474.66;;;34.11;36.98
6343;BME280;3204;42.698;23.298;2023-07-20T11:55:58;94463.66;;;34.40;37.24
6343;BME280;3204;42.698;23.298;2023-07-20T11:58:24;94457.56;;;34.92;36.63
6343;BME280;3204;42.698;23.298;2023-07-20T12:00:50;94464.13;;;34.98;36.14
6343;BME280;3204;42.698;23.298;2023-07-20T12:03:15;94462.50;;;34.64;36.54
6343;BME280;3204;42.698;23.298;2023-07-20T12:05:41;94463.13;;;34.77;37.13
6343;BME280;3204;42.698;23.298;2023-07-20T12:08:07;94457.03;;;34.61;36.59
6343;BME280;3204;42.698;23.298;2023-07-20T12:10:32;94460.88;;;34.22;36.74
6343;BME280;3204;42.698;23.298;2023-07-20T12:13:02;94448.59;;;34.61;36.63
6343;BME280;3204;42.698;23.298;2023-07-20T12:15:31;94453.91;;;34.59;35.91
6343;BME280;3204;42.698;23.298;2023-07-20T12:17:58;94442.25;;;34.84;35.67
6343;BME280;3204;42.698;23.298;2023-07-20T12:20:33;94444.56;;;35.27;34.70
6343;BME280;3204;42.698;23.298;2023-07-20T12:23:03;94444.19;;;35.57;34.28
6343;BME280;3204;42.698;23.298;2023-07-20T12:25:37;94447.13;;;35.87;34.77
6343;BME280;3204;42.698;23.298;2023-07-20T12:28:14;94445.22;;;36.07;33.55
6343;BME280;3204;42.698;23.298;2023-07-20T12:30:41;94452.19;;;35.97;33.60
6343;BME280;3204;42.698;23.298;2023-07-20T12:33:07;94436.81;;;36.13;31.19
6343;BME280;3204;42.698;23.298;2023-07-20T12:35:33;94442.53;;;36.27;30.63
6343;BME280;3204;42.698;23.298;2023-07-20T12:37:59;94437.66;;;36.42;30.52
6343;BME280;3204;42.698;23.298;2023-07-20T12:40:25;94430.13;;;36.54;29.56
6343;BME280;3204;42.698;23.298;2023-07-20T12:42:50;94441.81;;;36.61;29.88
6343;BME280;3204;42.698;23.298;2023-07-20T12:45:16;94435.91;;;36.59;29.44
6343;BME280;3204;42.698;23.298;2023-07-20T12:47:42;94436.69;;;36.74;30.27
6343;BME280;3204;42.698;23.298;2023-07-20T12:50:10;94428.09;;;36.83;30.64
6343;BME280;3204;42.698;23.298;2023-07-20T12:52:39;94427.19;;;36.92;30.24
6343;BME280;3204;42.698;23.298;2023-07-20T12:55:06;94429.91;;;36.86;30.10
6343;BME280;3204;42.698;23.298;2023-07-20T12:57:36;94429.41;;;36.15;30.87
6343;BME280;3204;42.698;23.298;2023-07-20T13:00:04;94416.16;;;36.07;31.31
6343;BME280;3204;42.698;23.298;2023-07-20T13:02:31;94420.34;;;35.97;31.97
6343;BME280;3204;42.698;23.298;2023-07-20T13:04:57;94420.16;;;36.00;31.66
6343;BME280;3204;42.698;23.298;2023-07-20T13:07:43;94422.50;;;36.16;32.00
6343;BME280;3204;42.698;23.298;2023-07-20T13:10:11;94416.53;;;35.85;31.71
6343;BME280;3204;42.698;23.298;2023-07-20T13:12:37;94412.06;;;35.31;32.77
6343;BME280;3204;42.698;23.298;2023-07-20T13:15:05;94407.09;;;35.50;32.75
6343;BME280;3204;42.698;23.298;2023-07-20T13:17:32;94409.69;;;35.77;32.38
6343;BME280;3204;42.698;23.298;2023-07-20T13:19:57;94418.59;;;35.99;32.12